首页
METAR-TAF:

METAR-TAF

机场 :

切尔维亚, 意大利

纬度: 44-13N, 经度: 012-18E, 海拔: 6米

当前天气观测

该预报发布于32分钟前的19:55 UTC
风速4节,风向西南
温度 2°C
湿度 64%
气压 1019 hPa
能见度10公里或以上
1500米以下无云,无积雨云

METAR: LIPC 011955Z 23004KT CAVOK 02/M04 Q1019 RMK SKC VIS MIN 9999 WIND THR11 23005KT WIND THR29 23005KT BLU

时间: 22:27 (20:27 UTC)

预报

该预报发布于3小时和27分钟前的17:00 UTC
预报有效从01日的 18点(UTC)到 02日的 03点(UTC)
风速5节,风向东北
能见度10公里或以上
1500米以下无云,无积雨云

TAF: LIPC 011700Z 0118/0203 04005KT CAVOK

超过4000个机场的气象观测和天气预报(METAR&TAF报告)。

可查询的气象台以黄色和红色小点在地图上表示。

将鼠标移到小点上方,可查看气象台名称。

然后点击查看天气观测和预报。

如需切换地图:点击带黑十字的绿色按钮放大地图;点击带横线的绿色按钮缩小地图;或者点击绿色箭头查看邻近地区的地图。


METAR-TAF: